sensor_id;sensor_type;location;lat;lon;timestamp;temperature;humidity
3416;DHT22;1721;51.238;9.562;2023-09-30T00:00:42;14.70;96.50
3416;DHT22;1721;51.238;9.562;2023-09-30T00:03:08;14.70;96.90
3416;DHT22;1721;51.238;9.562;2023-09-30T00:05:36;14.80;96.80
3416;DHT22;1721;51.238;9.562;2023-09-30T00:08:02;14.90;96.60
3416;DHT22;1721;51.238;9.562;2023-09-30T00:10:28;15.00;96.10
3416;DHT22;1721;51.238;9.562;2023-09-30T00:12:56;15.00;95.90
3416;DHT22;1721;51.238;9.562;2023-09-30T00:15:21;15.00;95.90
3416;DHT22;1721;51.238;9.562;2023-09-30T00:17:47;14.90;95.70
3416;DHT22;1721;51.238;9.562;2023-09-30T00:20:12;14.90;95.70
3416;DHT22;1721;51.238;9.562;2023-09-30T00:22:40;14.90;96.00
3416;DHT22;1721;51.238;9.562;2023-09-30T00:25:06;14.90;95.60
3416;DHT22;1721;51.238;9.562;2023-09-30T00:27:32;14.90;95.50
3416;DHT22;1721;51.238;9.562;2023-09-30T00:29:58;14.90;95.50
3416;DHT22;1721;51.238;9.562;2023-09-30T00:32:23;14.90;95.60
3416;DHT22;1721;51.238;9.562;2023-09-30T00:34:49;14.80;95.50
3416;DHT22;1721;51.238;9.562;2023-09-30T00:37:17;14.80;95.70
3416;DHT22;1721;51.238;9.562;2023-09-30T00:39:43;14.80;95.70
3416;DHT22;1721;51.238;9.562;2023-09-30T00:42:10;14.80;95.60
3416;DHT22;1721;51.238;9.562;2023-09-30T00:44:36;14.80;95.60
3416;DHT22;1721;51.238;9.562;2023-09-30T00:47:01;14.80;95.50
3416;DHT22;1721;51.238;9.562;2023-09-30T00:49:28;14.70;95.40
3416;DHT22;1721;51.238;9.562;2023-09-30T00:51:55;14.60;95.20
3416;DHT22;1721;51.238;9.562;2023-09-30T00:54:21;14.50;95.40
3416;DHT22;1721;51.238;9.562;2023-09-30T00:56:50;14.50;95.60
3416;DHT22;1721;51.238;9.562;2023-09-30T00:59:18;14.50;95.40
3416;DHT22;1721;51.238;9.562;2023-09-30T01:01:45;14.50;95.50
3416;DHT22;1721;51.238;9.562;2023-09-30T01:04:12;14.50;95.60
3416;DHT22;1721;51.238;9.562;2023-09-30T01:06:38;14.50;95.60
3416;DHT22;1721;51.238;9.562;2023-09-30T01:09:04;14.40;95.70
3416;DHT22;1721;51.238;9.562;2023-09-30T01:11:30;14.50;95.70
3416;DHT22;1721;51.238;9.562;2023-09-30T01:13:55;14.40;95.60
3416;DHT22;1721;51.238;9.562;2023-09-30T01:16:21;14.40;95.50
3416;DHT22;1721;51.238;9.562;2023-09-30T01:18:47;14.30;95.40
3416;DHT22;1721;51.238;9.562;2023-09-30T01:21:12;14.10;95.80
3416;DHT22;1721;51.238;9.562;2023-09-30T01:23:38;14.20;96.00
3416;DHT22;1721;51.238;9.562;2023-09-30T01:26:06;14.20;96.20
3416;DHT22;1721;51.238;9.562;2023-09-30T01:28:32;14.20;96.20
3416;DHT22;1721;51.238;9.562;2023-09-30T01:30:58;14.20;96.20
3416;DHT22;1721;51.238;9.562;2023-09-30T01:33:24;14.30;96.20
3416;DHT22;1721;51.238;9.562;2023-09-30T01:35:50;14.30;96.00
3416;DHT22;1721;51.238;9.562;2023-09-30T01:38:15;14.20;96.20
3416;DHT22;1721;51.238;9.562;2023-09-30T01:40:41;14.00;96.20
3416;DHT22;1721;51.238;9.562;2023-09-30T01:43:07;13.80;96.30
3416;DHT22;1721;51.238;9.562;2023-09-30T01:45:33;13.80;96.80
3416;DHT22;1721;51.238;9.562;2023-09-30T01:47:59;13.90;96.70
3416;DHT22;1721;51.238;9.562;2023-09-30T01:50:24;14.00;96.30
3416;DHT22;1721;51.238;9.562;2023-09-30T01:52:50;14.10;96.20
3416;DHT22;1721;51.238;9.562;2023-09-30T01:55:15;14.10;95.90
3416;DHT22;1721;51.238;9.562;2023-09-30T01:57:41;14.10;95.80
3416;DHT22;1721;51.238;9.562;2023-09-30T02:00:07;14.20;95.70
3416;DHT22;1721;51.238;9.562;2023-09-30T02:02:35;14.20;95.70
3416;DHT22;1721;51.238;9.562;2023-09-30T02:05:02;14.10;95.40
3416;DHT22;1721;51.238;9.562;2023-09-30T02:07:28;14.00;95.40
3416;DHT22;1721;51.238;9.562;2023-09-30T02:09:54;14.00;95.60
3416;DHT22;1721;51.238;9.562;2023-09-30T02:12:20;14.00;95.60
3416;DHT22;1721;51.238;9.562;2023-09-30T02:14:45;14.10;95.50
3416;DHT22;1721;51.238;9.562;2023-09-30T02:17:12;14.00;95.50
3416;DHT22;1721;51.238;9.562;2023-09-30T02:19:38;13.90;95.70
3416;DHT22;1721;51.238;9.562;2023-09-30T02:22:06;14.00;95.80
3416;DHT22;1721;51.238;9.562;2023-09-30T02:24:31;14.00;95.60
3416;DHT22;1721;51.238;9.562;2023-09-30T02:26:57;14.10;95.50
3416;DHT22;1721;51.238;9.562;2023-09-30T02:29:23;14.10;95.40
3416;DHT22;1721;51.238;9.562;2023-09-30T02:31:49;14.10;95.30
3416;DHT22;1721;51.238;9.562;2023-09-30T02:34:14;14.10;95.30
3416;DHT22;1721;51.238;9.562;2023-09-30T02:36:40;14.10;95.10
3416;DHT22;1721;51.238;9.562;2023-09-30T02:39:05;14.10;95.10
3416;DHT22;1721;51.238;9.562;2023-09-30T02:41:34;14.10;95.10
3416;DHT22;1721;51.238;9.562;2023-09-30T02:43:59;14.10;95.10
3416;DHT22;1721;51.238;9.562;2023-09-30T02:46:25;14.10;95.10
3416;DHT22;1721;51.238;9.562;2023-09-30T02:48:53;14.00;95.10
3416;DHT22;1721;51.238;9.562;2023-09-30T02:51:19;14.00;95.30
3416;DHT22;1721;51.238;9.562;2023-09-30T02:53:44;13.90;95.00
3416;DHT22;1721;51.238;9.562;2023-09-30T02:56:10;13.60;95.70
3416;DHT22;1721;51.238;9.562;2023-09-30T02:58:35;13.70;95.90
3416;DHT22;1721;51.238;9.562;2023-09-30T03:01:01;13.70;95.90
3416;DHT22;1721;51.238;9.562;2023-09-30T03:03:27;13.80;95.80
3416;DHT22;1721;51.238;9.562;2023-09-30T03:05:53;13.90;95.50
3416;DHT22;1721;51.238;9.562;2023-09-30T03:08:19;14.00;95.50
3416;DHT22;1721;51.238;9.562;2023-09-30T03:10:45;14.00;95.30
3416;DHT22;1721;51.238;9.562;2023-09-30T03:13:11;14.00;95.10
3416;DHT22;1721;51.238;9.562;2023-09-30T03:15:37;13.90;94.80
3416;DHT22;1721;51.238;9.562;2023-09-30T03:18:04;13.80;95.10
3416;DHT22;1721;51.238;9.562;2023-09-30T03:20:30;13.80;95.30
3416;DHT22;1721;51.238;9.562;2023-09-30T03:22:56;13.80;95.20
3416;DHT22;1721;51.238;9.562;2023-09-30T03:25:22;13.80;95.10
3416;DHT22;1721;51.238;9.562;2023-09-30T03:27:48;13.80;95.00
3416;DHT22;1721;51.238;9.562;2023-09-30T03:30:15;13.90;95.00
3416;DHT22;1721;51.238;9.562;2023-09-30T03:32:42;13.70;95.10
3416;DHT22;1721;51.238;9.562;2023-09-30T03:35:09;13.60;95.00
3416;DHT22;1721;51.238;9.562;2023-09-30T03:37:46;13.50;95.00
3416;DHT22;1721;51.238;9.562;2023-09-30T03:40:13;13.40;95.80
3416;DHT22;1721;51.238;9.562;2023-09-30T03:42:40;13.50;95.80
3416;DHT22;1721;51.238;9.562;2023-09-30T03:45:08;13.40;95.90
3416;DHT22;1721;51.238;9.562;2023-09-30T03:47:37;13.50;96.00
3416;DHT22;1721;51.238;9.562;2023-09-30T03:50:04;13.40;95.60
3416;DHT22;1721;51.238;9.562;2023-09-30T03:52:34;13.40;96.20
3416;DHT22;1721;51.238;9.562;2023-09-30T03:55:00;13.50;95.90
3416;DHT22;1721;51.238;9.562;2023-09-30T03:57:31;13.60;96.10
3416;DHT22;1721;51.238;9.562;2023-09-30T03:59:56;13.70;95.90
3416;DHT22;1721;51.238;9.562;2023-09-30T04:02:22;13.90;95.80
3416;DHT22;1721;51.238;9.562;2023-09-30T04:04:48;14.00;95.60
3416;DHT22;1721;51.238;9.562;2023-09-30T04:07:16;14.10;95.40
3416;DHT22;1721;51.238;9.562;2023-09-30T04:09:42;14.10;95.40
3416;DHT22;1721;51.238;9.562;2023-09-30T04:12:07;14.20;95.30
3416;DHT22;1721;51.238;9.562;2023-09-30T04:14:33;14.20;95.40
3416;DHT22;1721;51.238;9.562;2023-09-30T04:16:59;14.30;95.30
3416;DHT22;1721;51.238;9.562;2023-09-30T04:19:24;14.40;95.20
3416;DHT22;1721;51.238;9.562;2023-09-30T04:21:50;14.30;95.20
3416;DHT22;1721;51.238;9.562;2023-09-30T04:24:15;14.00;95.60
3416;DHT22;1721;51.238;9.562;2023-09-30T04:26:41;13.90;95.90
3416;DHT22;1721;51.238;9.562;2023-09-30T04:29:07;13.80;95.80
3416;DHT22;1721;51.238;9.562;2023-09-30T04:31:37;13.90;96.00
3416;DHT22;1721;51.238;9.562;2023-09-30T04:34:04;13.80;95.80
3416;DHT22;1721;51.238;9.562;2023-09-30T04:36:30;13.90;95.80
3416;DHT22;1721;51.238;9.562;2023-09-30T04:38:56;14.00;95.60
3416;DHT22;1721;51.238;9.562;2023-09-30T04:41:21;14.00;95.40
3416;DHT22;1721;51.238;9.562;2023-09-30T04:43:47;14.00;95.30
3416;DHT22;1721;51.238;9.562;2023-09-30T04:46:13;14.00;95.10
3416;DHT22;1721;51.238;9.562;2023-09-30T04:48:39;14.00;95.00
3416;DHT22;1721;51.238;9.562;2023-09-30T04:51:08;14.00;95.00
3416;DHT22;1721;51.238;9.562;2023-09-30T04:53:34;14.00;95.00
3416;DHT22;1721;51.238;9.562;2023-09-30T04:56:00;13.90;94.90
3416;DHT22;1721;51.238;9.562;2023-09-30T04:58:26;13.90;94.90
3416;DHT22;1721;51.238;9.562;2023-09-30T05:00:51;14.00;94.90
3416;DHT22;1721;51.238;9.562;2023-09-30T05:03:17;13.90;95.00
3416;DHT22;1721;51.238;9.562;2023-09-30T05:05:44;14.00;95.20
3416;DHT22;1721;51.238;9.562;2023-09-30T05:08:10;14.00;95.20
3416;DHT22;1721;51.238;9.562;2023-09-30T05:10:36;14.10;95.10
3416;DHT22;1721;51.238;9.562;2023-09-30T05:13:03;14.00;95.00
3416;DHT22;1721;51.238;9.562;2023-09-30T05:15:29;13.90;95.20
3416;DHT22;1721;51.238;9.562;2023-09-30T05:17:57;13.70;95.50
3416;DHT22;1721;51.238;9.562;2023-09-30T05:20:22;13.50;96.00
3416;DHT22;1721;51.238;9.562;2023-09-30T05:22:49;13.60;96.00
3416;DHT22;1721;51.238;9.562;2023-09-30T05:25:16;13.60;95.90
3416;DHT22;1721;51.238;9.562;2023-09-30T05:27:42;13.70;95.80
3416;DHT22;1721;51.238;9.562;2023-09-30T05:30:08;13.70;95.50
3416;DHT22;1721;51.238;9.562;2023-09-30T05:32:36;13.80;95.30
3416;DHT22;1721;51.238;9.562;2023-09-30T05:35:08;13.80;95.10
3416;DHT22;1721;51.238;9.562;2023-09-30T05:37:41;13.70;95.10
3416;DHT22;1721;51.238;9.562;2023-09-30T05:40:08;13.70;95.10
3416;DHT22;1721;51.238;9.562;2023-09-30T05:42:55;13.70;95.10
3416;DHT22;1721;51.238;9.562;2023-09-30T05:45:23;13.70;95.00
3416;DHT22;1721;51.238;9.562;2023-09-30T05:47:50;13.80;95.10
3416;DHT22;1721;51.238;9.562;2023-09-30T05:50:18;13.80;95.00
3416;DHT22;1721;51.238;9.562;2023-09-30T05:52:49;13.90;94.90
3416;DHT22;1721;51.238;9.562;2023-09-30T05:55:16;13.90;95.00
3416;DHT22;1721;51.238;9.562;2023-09-30T05:57:45;13.90;95.00
3416;DHT22;1721;51.238;9.562;2023-09-30T06:00:13;14.00;95.20
3416;DHT22;1721;51.238;9.562;2023-09-30T06:02:56;14.00;95.30
3416;DHT22;1721;51.238;9.562;2023-09-30T06:05:22;14.00;95.70
3416;DHT22;1721;51.238;9.562;2023-09-30T06:07:48;14.10;95.60
3416;DHT22;1721;51.238;9.562;2023-09-30T06:10:14;14.20;95.30
3416;DHT22;1721;51.238;9.562;2023-09-30T06:12:45;14.10;95.70
3416;DHT22;1721;51.238;9.562;2023-09-30T06:15:12;14.10;95.60
3416;DHT22;1721;51.238;9.562;2023-09-30T06:17:38;14.20;95.90
3416;DHT22;1721;51.238;9.562;2023-09-30T06:20:05;14.30;95.80
3416;DHT22;1721;51.238;9.562;2023-09-30T06:22:41;14.40;95.80
3416;DHT22;1721;51.238;9.562;2023-09-30T06:25:07;14.50;95.70
3416;DHT22;1721;51.238;9.562;2023-09-30T06:27:33;14.60;95.60
3416;DHT22;1721;51.238;9.562;2023-09-30T06:29:59;14.60;95.50
3416;DHT22;1721;51.238;9.562;2023-09-30T06:32:24;14.70;95.50
3416;DHT22;1721;51.238;9.562;2023-09-30T06:34:50;14.80;95.40
3416;DHT22;1721;51.238;9.562;2023-09-30T06:37:15;14.80;95.30
3416;DHT22;1721;51.238;9.562;2023-09-30T06:39:41;14.80;95.30
3416;DHT22;1721;51.238;9.562;2023-09-30T06:42:06;14.90;95.10
3416;DHT22;1721;51.238;9.562;2023-09-30T06:44:32;14.90;95.00
3416;DHT22;1721;51.238;9.562;2023-09-30T06:46:58;15.00;95.00
3416;DHT22;1721;51.238;9.562;2023-09-30T06:49:23;15.00;94.70
3416;DHT22;1721;51.238;9.562;2023-09-30T06:51:49;15.00;94.70
3416;DHT22;1721;51.238;9.562;2023-09-30T06:54:15;15.00;94.70
3416;DHT22;1721;51.238;9.562;2023-09-30T06:56:40;14.90;94.60
3416;DHT22;1721;51.238;9.562;2023-09-30T06:59:06;14.80;94.90
3416;DHT22;1721;51.238;9.562;2023-09-30T07:01:32;14.80;95.00
3416;DHT22;1721;51.238;9.562;2023-09-30T07:03:57;14.80;94.90
3416;DHT22;1721;51.238;9.562;2023-09-30T07:06:26;14.70;95.00
3416;DHT22;1721;51.238;9.562;2023-09-30T07:08:52;14.80;95.10
3416;DHT22;1721;51.238;9.562;2023-09-30T07:11:29;14.70;95.30
3416;DHT22;1721;51.238;9.562;2023-09-30T07:13:56;14.60;95.40
3416;DHT22;1721;51.238;9.562;2023-09-30T07:16:21;14.60;95.70
3416;DHT22;1721;51.238;9.562;2023-09-30T07:18:47;14.50;96.10
3416;DHT22;1721;51.238;9.562;2023-09-30T07:21:13;14.60;96.20
3416;DHT22;1721;51.238;9.562;2023-09-30T07:23:38;14.60;95.90
3416;DHT22;1721;51.238;9.562;2023-09-30T07:26:04;14.70;96.00
3416;DHT22;1721;51.238;9.562;2023-09-30T07:28:29;14.90;96.00
3416;DHT22;1721;51.238;9.562;2023-09-30T07:30:55;15.00;96.00
3416;DHT22;1721;51.238;9.562;2023-09-30T07:33:22;15.00;96.20
3416;DHT22;1721;51.238;9.562;2023-09-30T07:35:47;15.20;96.30
3416;DHT22;1721;51.238;9.562;2023-09-30T07:38:13;15.30;96.20
3416;DHT22;1721;51.238;9.562;2023-09-30T07:40:38;15.50;96.20
3416;DHT22;1721;51.238;9.562;2023-09-30T07:43:04;15.60;96.00
3416;DHT22;1721;51.238;9.562;2023-09-30T07:45:30;15.80;96.10
3416;DHT22;1721;51.238;9.562;2023-09-30T07:47:55;16.10;96.10
3416;DHT22;1721;51.238;9.562;2023-09-30T07:50:21;16.30;95.90
3416;DHT22;1721;51.238;9.562;2023-09-30T07:52:47;16.40;95.70
3416;DHT22;1721;51.238;9.562;2023-09-30T07:55:13;16.60;95.50
3416;DHT22;1721;51.238;9.562;2023-09-30T07:57:40;16.50;95.20
3416;DHT22;1721;51.238;9.562;2023-09-30T08:00:07;16.60;95.60
3416;DHT22;1721;51.238;9.562;2023-09-30T08:02:34;16.60;94.30
3416;DHT22;1721;51.238;9.562;2023-09-30T08:05:00;16.60;94.60
3416;DHT22;1721;51.238;9.562;2023-09-30T08:07:26;16.70;94.70
3416;DHT22;1721;51.238;9.562;2023-09-30T08:09:52;16.70;94.40
3416;DHT22;1721;51.238;9.562;2023-09-30T08:12:17;16.70;94.50
3416;DHT22;1721;51.238;9.562;2023-09-30T08:14:44;16.80;94.30
3416;DHT22;1721;51.238;9.562;2023-09-30T08:17:10;16.90;94.40
3416;DHT22;1721;51.238;9.562;2023-09-30T08:19:36;16.90;94.10
3416;DHT22;1721;51.238;9.562;2023-09-30T08:22:02;16.80;94.10
3416;DHT22;1721;51.238;9.562;2023-09-30T08:24:29;16.90;94.10
3416;DHT22;1721;51.238;9.562;2023-09-30T08:26:54;16.70;94.50
3416;DHT22;1721;51.238;9.562;2023-09-30T08:29:21;16.70;94.60
3416;DHT22;1721;51.238;9.562;2023-09-30T08:31:47;16.90;94.50
3416;DHT22;1721;51.238;9.562;2023-09-30T08:34:12;17.00;94.10
3416;DHT22;1721;51.238;9.562;2023-09-30T08:36:40;17.00;94.50
3416;DHT22;1721;51.238;9.562;2023-09-30T08:39:05;16.90;94.30
3416;DHT22;1721;51.238;9.562;2023-09-30T08:41:33;17.00;94.30
3416;DHT22;1721;51.238;9.562;2023-09-30T08:44:03;17.10;94.30
3416;DHT22;1721;51.238;9.562;2023-09-30T08:46:33;17.20;94.10
3416;DHT22;1721;51.238;9.562;2023-09-30T08:49:03;17.10;94.20
3416;DHT22;1721;51.238;9.562;2023-09-30T08:51:29;17.20;94.50
3416;DHT22;1721;51.238;9.562;2023-09-30T08:53:56;17.40;94.30
3416;DHT22;1721;51.238;9.562;2023-09-30T08:56:29;17.50;94.00
3416;DHT22;1721;51.238;9.562;2023-09-30T08:58:57;17.50;93.70
3416;DHT22;1721;51.238;9.562;2023-09-30T09:01:25;17.60;93.70
3416;DHT22;1721;51.238;9.562;2023-09-30T09:03:51;17.50;93.60
3416;DHT22;1721;51.238;9.562;2023-09-30T09:06:22;17.50;92.80
3416;DHT22;1721;51.238;9.562;2023-09-30T09:08:48;17.50;92.50
3416;DHT22;1721;51.238;9.562;2023-09-30T09:11:14;17.60;92.50
3416;DHT22;1721;51.238;9.562;2023-09-30T09:13:47;17.50;92.50
3416;DHT22;1721;51.238;9.562;2023-09-30T09:16:15;17.60;92.90
3416;DHT22;1721;51.238;9.562;2023-09-30T09:18:42;17.60;92.70
3416;DHT22;1721;51.238;9.562;2023-09-30T09:21:09;17.60;92.40
3416;DHT22;1721;51.238;9.562;2023-09-30T09:23:46;17.70;92.50
3416;DHT22;1721;51.238;9.562;2023-09-30T09:26:33;17.80;92.40
3416;DHT22;1721;51.238;9.562;2023-09-30T09:29:04;18.00;92.60
3416;DHT22;1721;51.238;9.562;2023-09-30T09:31:34;18.10;92.40
3416;DHT22;1721;51.238;9.562;2023-09-30T09:34:01;18.30;92.50
3416;DHT22;1721;51.238;9.562;2023-09-30T09:36:39;18.30;91.70
3416;DHT22;1721;51.238;9.562;2023-09-30T09:39:06;18.40;92.00
3416;DHT22;1721;51.238;9.562;2023-09-30T09:41:33;18.70;91.80
3416;DHT22;1721;51.238;9.562;2023-09-30T09:44:10;18.90;91.90
3416;DHT22;1721;51.238;9.562;2023-09-30T09:46:36;19.40;91.80
3416;DHT22;1721;51.238;9.562;2023-09-30T09:49:02;19.70;91.40
3416;DHT22;1721;51.238;9.562;2023-09-30T09:51:28;19.70;90.10
3416;DHT22;1721;51.238;9.562;2023-09-30T09:53:54;19.90;90.40
3416;DHT22;1721;51.238;9.562;2023-09-30T09:56:20;20.20;90.30
3416;DHT22;1721;51.238;9.562;2023-09-30T09:58:47;20.20;87.70
3416;DHT22;1721;51.238;9.562;2023-09-30T10:01:13;20.10;88.10
3416;DHT22;1721;51.238;9.562;2023-09-30T10:03:39;19.80;88.40
3416;DHT22;1721;51.238;9.562;2023-09-30T10:06:05;19.90;87.30
3416;DHT22;1721;51.238;9.562;2023-09-30T10:08:35;19.80;88.70
3416;DHT22;1721;51.238;9.562;2023-09-30T10:11:02;20.00;89.10
3416;DHT22;1721;51.238;9.562;2023-09-30T10:13:49;20.20;87.70
3416;DHT22;1721;51.238;9.562;2023-09-30T10:19:09;20.40;86.10
3416;DHT22;1721;51.238;9.562;2023-09-30T10:21:34;20.40;85.20
3416;DHT22;1721;51.238;9.562;2023-09-30T10:30:05;19.70;86.30
3416;DHT22;1721;51.238;9.562;2023-09-30T10:35:20;19.80;85.90
3416;DHT22;1721;51.238;9.562;2023-09-30T10:37:47;19.70;87.00
3416;DHT22;1721;51.238;9.562;2023-09-30T10:40:27;20.00;87.50
3416;DHT22;1721;51.238;9.562;2023-09-30T10:42:53;20.10;86.00
3416;DHT22;1721;51.238;9.562;2023-09-30T10:45:46;20.20;86.00
3416;DHT22;1721;51.238;9.562;2023-09-30T10:53:17;20.90;85.20
3416;DHT22;1721;51.238;9.562;2023-09-30T10:55:45;21.00;85.20
3416;DHT22;1721;51.238;9.562;2023-09-30T10:58:12;20.90;81.60
3416;DHT22;1721;51.238;9.562;2023-09-30T11:00:38;20.70;82.20
3416;DHT22;1721;51.238;9.562;2023-09-30T11:03:04;20.60;83.30
3416;DHT22;1721;51.238;9.562;2023-09-30T11:05:31;20.20;82.50
3416;DHT22;1721;51.238;9.562;2023-09-30T11:08:02;20.00;82.90
3416;DHT22;1721;51.238;9.562;2023-09-30T11:10:29;20.10;80.90
3416;DHT22;1721;51.238;9.562;2023-09-30T11:12:57;20.30;80.30
3416;DHT22;1721;51.238;9.562;2023-09-30T11:15:23;20.50;79.40
3416;DHT22;1721;51.238;9.562;2023-09-30T11:17:51;20.50;80.90
3416;DHT22;1721;51.238;9.562;2023-09-30T11:20:17;20.50;80.40
3416;DHT22;1721;51.238;9.562;2023-09-30T11:22:47;20.40;82.40
3416;DHT22;1721;51.238;9.562;2023-09-30T11:25:17;20.60;82.90
3416;DHT22;1721;51.238;9.562;2023-09-30T11:27:43;20.80;82.80
3416;DHT22;1721;51.238;9.562;2023-09-30T11:30:10;20.90;82.20
3416;DHT22;1721;51.238;9.562;2023-09-30T11:32:35;21.10;82.20
3416;DHT22;1721;51.238;9.562;2023-09-30T11:35:01;21.00;81.50
3416;DHT22;1721;51.238;9.562;2023-09-30T11:37:33;20.90;80.80
3416;DHT22;1721;51.238;9.562;2023-09-30T11:40:14;20.70;80.30
3416;DHT22;1721;51.238;9.562;2023-09-30T11:42:40;20.40;81.50
3416;DHT22;1721;51.238;9.562;2023-09-30T11:45:19;20.20;80.70
3416;DHT22;1721;51.238;9.562;2023-09-30T11:47:46;19.80;79.60
3416;DHT22;1721;51.238;9.562;2023-09-30T11:50:11;19.60;78.80
3416;DHT22;1721;51.238;9.562;2023-09-30T11:52:38;19.70;79.40
3416;DHT22;1721;51.238;9.562;2023-09-30T11:55:06;19.60;80.90
3416;DHT22;1721;51.238;9.562;2023-09-30T11:57:31;19.30;81.40
3416;DHT22;1721;51.238;9.562;2023-09-30T11:59:57;19.30;81.80
3416;DHT22;1721;51.238;9.562;2023-09-30T12:02:22;19.30;80.50
3416;DHT22;1721;51.238;9.562;2023-09-30T12:04:48;19.40;80.20
3416;DHT22;1721;51.238;9.562;2023-09-30T12:07:13;19.50;81.10
3416;DHT22;1721;51.238;9.562;2023-09-30T12:09:39;19.50;81.90
3416;DHT22;1721;51.238;9.562;2023-09-30T12:12:06;19.40;82.40
3416;DHT22;1721;51.238;9.562;2023-09-30T12:14:34;19.20;86.80
3416;DHT22;1721;51.238;9.562;2023-09-30T12:17:00;19.10;83.40
3416;DHT22;1721;51.238;9.562;2023-09-30T12:19:25;19.10;83.90
3416;DHT22;1721;51.238;9.562;2023-09-30T12:21:52;19.20;83.30
3416;DHT22;1721;51.238;9.562;2023-09-30T12:24:17;19.30;83.50
3416;DHT22;1721;51.238;9.562;2023-09-30T12:26:47;19.30;84.00
3416;DHT22;1721;51.238;9.562;2023-09-30T12:29:23;19.30;84.20
3416;DHT22;1721;51.238;9.562;2023-09-30T12:31:50;19.30;84.50
3416;DHT22;1721;51.238;9.562;2023-09-30T12:34:16;19.30;83.50
3416;DHT22;1721;51.238;9.562;2023-09-30T12:36:42;19.30;83.90
3416;DHT22;1721;51.238;9.562;2023-09-30T12:39:09;19.10;84.00
3416;DHT22;1721;51.238;9.562;2023-09-30T12:41:39;19.10;84.10
3416;DHT22;1721;51.238;9.562;2023-09-30T12:44:06;19.10;84.30
3416;DHT22;1721;51.238;9.562;2023-09-30T12:46:32;18.90;86.60
3416;DHT22;1721;51.238;9.562;2023-09-30T12:49:01;18.90;87.00
3416;DHT22;1721;51.238;9.562;2023-09-30T12:51:27;18.80;85.70
3416;DHT22;1721;51.238;9.562;2023-09-30T12:53:53;18.80;85.80
3416;DHT22;1721;51.238;9.562;2023-09-30T12:56:18;18.70;85.40
3416;DHT22;1721;51.238;9.562;2023-09-30T12:58:44;18.80;86.50
3416;DHT22;1721;51.238;9.562;2023-09-30T13:01:10;18.90;85.90
3416;DHT22;1721;51.238;9.562;2023-09-30T13:03:37;18.90;85.40
3416;DHT22;1721;51.238;9.562;2023-09-30T13:06:02;18.90;87.00
3416;DHT22;1721;51.238;9.562;2023-09-30T13:08:29;18.90;86.20
3416;DHT22;1721;51.238;9.562;2023-09-30T13:11:00;19.10;86.40
3416;DHT22;1721;51.238;9.562;2023-09-30T13:13:26;19.30;85.30
3416;DHT22;1721;51.238;9.562;2023-09-30T13:15:51;19.30;83.50
3416;DHT22;1721;51.238;9.562;2023-09-30T13:18:18;19.50;83.50
3416;DHT22;1721;51.238;9.562;2023-09-30T13:20:43;19.70;82.70
3416;DHT22;1721;51.238;9.562;2023-09-30T13:23:09;19.80;83.70
3416;DHT22;1721;51.238;9.562;2023-09-30T13:25:35;19.90;82.80
3416;DHT22;1721;51.238;9.562;2023-09-30T13:28:01;19.90;83.80
3416;DHT22;1721;51.238;9.562;2023-09-30T13:30:30;20.00;83.60
3416;DHT22;1721;51.238;9.562;2023-09-30T13:32:56;19.90;82.40
3416;DHT22;1721;51.238;9.562;2023-09-30T13:35:24;19.90;82.10
3416;DHT22;1721;51.238;9.562;2023-09-30T13:37:50;19.70;82.60
3416;DHT22;1721;51.238;9.562;2023-09-30T13:40:16;19.70;83.20
3416;DHT22;1721;51.238;9.562;2023-09-30T13:42:42;19.70;83.30
3416;DHT22;1721;51.238;9.562;2023-09-30T13:45:11;19.70;83.70
3416;DHT22;1721;51.238;9.562;2023-09-30T13:47:38;19.60;82.70
3416;DHT22;1721;51.238;9.562;2023-09-30T13:50:04;19.70;83.60
3416;DHT22;1721;51.238;9.562;2023-09-30T13:52:35;19.70;84.50
3416;DHT22;1721;51.238;9.562;2023-09-30T13:55:02;19.70;83.60
3416;DHT22;1721;51.238;9.562;2023-09-30T13:57:30;19.70;83.80
3416;DHT22;1721;51.238;9.562;2023-09-30T13:59:56;19.90;83.30
3416;DHT22;1721;51.238;9.562;2023-09-30T14:02:23;20.00;82.80
3416;DHT22;1721;51.238;9.562;2023-09-30T14:04:49;20.10;82.90
3416;DHT22;1721;51.238;9.562;2023-09-30T14:07:19;20.20;82.60
3416;DHT22;1721;51.238;9.562;2023-09-30T14:09:45;20.30;81.10
3416;DHT22;1721;51.238;9.562;2023-09-30T14:12:11;20.30;82.00
3416;DHT22;1721;51.238;9.562;2023-09-30T14:14:37;20.30;81.20
3416;DHT22;1721;51.238;9.562;2023-09-30T14:17:03;20.20;78.20
3416;DHT22;1721;51.238;9.562;2023-09-30T14:19:34;20.40;78.60
3416;DHT22;1721;51.238;9.562;2023-09-30T14:22:03;20.60;78.80
3416;DHT22;1721;51.238;9.562;2023-09-30T14:24:33;20.60;79.50
3416;DHT22;1721;51.238;9.562;2023-09-30T14:26:59;20.60;77.40
3416;DHT22;1721;51.238;9.562;2023-09-30T14:29:25;20.70;75.70
3416;DHT22;1721;51.238;9.562;2023-09-30T14:31:52;20.80;75.80
3416;DHT22;1721;51.238;9.562;2023-09-30T14:34:17;21.00;75.20
3416;DHT22;1721;51.238;9.562;2023-09-30T14:36:47;21.20;75.10
3416;DHT22;1721;51.238;9.562;2023-09-30T14:39:13;21.10;76.70
3416;DHT22;1721;51.238;9.562;2023-09-30T14:41:42;21.30;76.80
3416;DHT22;1721;51.238;9.562;2023-09-30T14:44:09;21.10;74.70
3416;DHT22;1721;51.238;9.562;2023-09-30T14:46:38;21.20;76.30
3416;DHT22;1721;51.238;9.562;2023-09-30T14:49:04;21.20;77.50
3416;DHT22;1721;51.238;9.562;2023-09-30T14:51:37;21.00;76.70
3416;DHT22;1721;51.238;9.562;2023-09-30T14:54:04;20.90;76.70
3416;DHT22;1721;51.238;9.562;2023-09-30T14:56:31;20.90;77.90
3416;DHT22;1721;51.238;9.562;2023-09-30T14:58:57;21.00;77.40
3416;DHT22;1721;51.238;9.562;2023-09-30T15:01:23;21.00;76.40
3416;DHT22;1721;51.238;9.562;2023-09-30T15:03:52;21.10;76.60
3416;DHT22;1721;51.238;9.562;2023-09-30T15:06:18;21.20;76.70
3416;DHT22;1721;51.238;9.562;2023-09-30T15:08:44;21.30;76.80
3416;DHT22;1721;51.238;9.562;2023-09-30T15:11:13;21.40;77.20
3416;DHT22;1721;51.238;9.562;2023-09-30T15:13:43;21.40;77.20
3416;DHT22;1721;51.238;9.562;2023-09-30T15:16:20;21.40;77.30
3416;DHT22;1721;51.238;9.562;2023-09-30T15:18:49;21.30;77.40
3416;DHT22;1721;51.238;9.562;2023-09-30T15:21:17;21.20;77.70
3416;DHT22;1721;51.238;9.562;2023-09-30T15:23:43;21.10;77.80
3416;DHT22;1721;51.238;9.562;2023-09-30T15:26:13;21.00;78.30
3416;DHT22;1721;51.238;9.562;2023-09-30T15:28:39;20.90;79.10
3416;DHT22;1721;51.238;9.562;2023-09-30T15:31:05;20.90;79.60
3416;DHT22;1721;51.238;9.562;2023-09-30T15:33:38;20.80;80.10
3416;DHT22;1721;51.238;9.562;2023-09-30T15:36:11;20.60;81.20
3416;DHT22;1721;51.238;9.562;2023-09-30T15:38:38;20.50;81.80
3416;DHT22;1721;51.238;9.562;2023-09-30T15:41:04;20.30;82.20
3416;DHT22;1721;51.238;9.562;2023-09-30T15:43:31;20.20;82.80
3416;DHT22;1721;51.238;9.562;2023-09-30T15:45:58;20.00;83.30
3416;DHT22;1721;51.238;9.562;2023-09-30T15:48:25;19.80;84.20
3416;DHT22;1721;51.238;9.562;2023-09-30T15:50:51;19.70;84.80
3416;DHT22;1721;51.238;9.562;2023-09-30T15:53:17;19.60;84.70
3416;DHT22;1721;51.238;9.562;2023-09-30T15:55:45;19.50;84.70
3416;DHT22;1721;51.238;9.562;2023-09-30T15:58:14;19.30;85.10
3416;DHT22;1721;51.238;9.562;2023-09-30T16:00:41;19.30;85.80
3416;DHT22;1721;51.238;9.562;2023-09-30T16:03:10;19.20;85.90
3416;DHT22;1721;51.238;9.562;2023-09-30T16:05:39;19.10;86.20
3416;DHT22;1721;51.238;9.562;2023-09-30T16:08:09;18.90;86.70
3416;DHT22;1721;51.238;9.562;2023-09-30T16:10:36;18.90;87.00
3416;DHT22;1721;51.238;9.562;2023-09-30T16:13:03;18.80;87.10
3416;DHT22;1721;51.238;9.562;2023-09-30T16:15:38;18.80;87.40
3416;DHT22;1721;51.238;9.562;2023-09-30T16:18:06;18.70;87.60